Time;durP1;ratioP1;P1;durP2;ratioP2;P2;SDS_P1;SDS_P2;PMS_P1;PMS_P2;Temp;Humidity;BMP_temperature;BMP_pressure;BME280_temperature;BME280_humidity;BME280_pressure;Samples;Min_cycle;Max_cycle;Signal;HPM_P1;HPM_P2
2022/01/15 00:01:14;;;;;;;51.38;46.53;;;0.20;94.60;;;;;;5033522;28;20718;-73
2022/01/15 00:03:41;;;;;;;48.78;44.08;;;0.20;94.60;;;;;;5033902;28;20259;-73
2022/01/15 00:06:08;;;;;;;49.47;44.33;;;0.20;94.50;;;;;;5033798;28;20666;-73
2022/01/15 00:08:35;;;;;;;49.28;44.53;;;0.10;94.60;;;;;;5033895;28;20201;-73
2022/01/15 00:11:02;;;;;;;50.78;45.55;;;0.10;94.60;;;;;;5033647;28;20218;-73
2022/01/15 00:13:30;;;;;;;50.25;45.15;;;0.10;94.40;;;;;;5034230;28;20189;-71
2022/01/15 00:16:07;;;;;;;50.22;45.13;;;0.10;94.50;;;;;;5033885;28;20197;-71
2022/01/15 00:18:43;;;;;;;51.33;46.30;;;0.10;94.50;;;;;;5033672;28;20197;-71
2022/01/15 00:21:10;;;;;;;49.20;44.55;;;0.10;94.30;;;;;;5033378;28;20221;-71
2022/01/15 00:23:37;;;;;;;50.20;45.38;;;0.00;94.80;;;;;;5033543;28;20343;-71
2022/01/15 00:26:04;;;;;;;49.92;45.35;;;0.00;94.90;;;;;;5033425;28;20667;-71
2022/01/15 00:28:31;;;;;;;50.40;45.90;;;0.00;95.10;;;;;;5033394;28;20198;-71
2022/01/15 00:30:59;;;;;;;50.90;45.78;;;0.00;95.00;;;;;;5033201;28;20240;-71
2022/01/15 00:33:29;;;;;;;50.92;46.08;;;-0.10;95.10;;;;;;5033320;28;20252;-71
2022/01/15 00:35:57;;;;;;;50.67;45.67;;;-0.10;95.20;;;;;;5033417;28;20209;-70
2022/01/15 00:38:24;;;;;;;48.10;43.40;;;-0.10;95.30;;;;;;5033276;28;20194;-71
2022/01/15 00:40:51;;;;;;;49.10;44.50;;;-0.10;95.40;;;;;;5032992;28;20785;-71
2022/01/15 00:43:18;;;;;;;53.10;47.30;;;-0.10;95.30;;;;;;5033063;28;20308;-71
2022/01/15 00:45:45;;;;;;;49.33;44.97;;;-0.10;95.10;;;;;;5033210;28;20205;-71
2022/01/15 00:48:13;;;;;;;50.15;45.20;;;-0.10;94.90;;;;;;5032961;28;20229;-71
2022/01/15 00:50:40;;;;;;;50.38;44.78;;;0.00;94.60;;;;;;5032846;28;20734;-71
2022/01/15 00:53:07;;;;;;;49.03;44.53;;;0.00;94.40;;;;;;5033048;28;20745;-71
2022/01/15 00:55:34;;;;;;;49.65;45.13;;;0.00;94.30;;;;;;5032811;28;20200;-71
2022/01/15 00:58:01;;;;;;;48.65;44.03;;;-0.10;94.30;;;;;;5032872;28;20208;-71
2022/01/15 01:00:28;;;;;;;47.38;43.22;;;-0.20;94.80;;;;;;5032623;28;20217;-71
2022/01/15 01:02:57;;;;;;;49.38;44.42;;;-0.20;95.10;;;;;;5033080;28;20221;-71
2022/01/15 01:05:25;;;;;;;51.67;46.85;;;-0.20;95.00;;;;;;5032841;28;20289;-70
2022/01/15 01:07:53;;;;;;;160.30;58.05;;;-0.10;94.80;;;;;;5032520;28;20750;-71
2022/01/15 01:13:32;;;;;;;48.80;44.08;;;-0.20;94.90;;;;;;5025616;28;20192;-70
2022/01/15 01:24:19;;;;;;;46.75;42.55;;;-0.30;95.00;;;;;;5022038;28;20216;-70
2022/01/15 01:26:52;;;;;;;752.42;125.63;;;-0.30;94.90;;;;;;5032694;28;20227;-70
2022/01/15 01:29:29;;;;;;;49.13;44.72;;;-0.30;95.30;;;;;;5032522;28;20217;-71
2022/01/15 01:32:01;;;;;;;48.55;44.30;;;-0.30;95.70;;;;;;5032638;28;20197;-71
2022/01/15 01:34:31;;;;;;;49.03;44.63;;;-0.30;95.40;;;;;;5032595;28;20251;-71
2022/01/15 01:37:05;;;;;;;1113.72;183.38;;;-0.30;95.30;;;;;;5032455;28;20658;-71
2022/01/15 01:39:40;;;;;;;49.30;44.60;;;-0.30;97.50;;;;;;5032345;28;20220;-71
2022/01/15 01:42:14;;;;;;;46.15;42.10;;;-0.20;98.10;;;;;;5032432;28;20203;-71
2022/01/15 01:44:57;;;;;;;46.45;42.25;;;-0.20;97.50;;;;;;5032439;28;20264;-71
2022/01/15 01:47:35;;;;;;;48.60;43.83;;;-0.10;97.10;;;;;;5032428;28;20197;-71
2022/01/15 01:50:02;;;;;;;51.35;46.55;;;-0.10;97.80;;;;;;5032136;28;20232;-71
2022/01/15 01:52:30;;;;;;;48.78;44.03;;;0.00;97.20;;;;;;5032490;28;20575;-71
2022/01/15 01:54:58;;;;;;;47.53;43.03;;;0.00;96.80;;;;;;5032166;28;20537;-71
2022/01/15 01:57:24;;;;;;;46.97;42.50;;;0.00;96.40;;;;;;5032141;28;20291;-71
2022/01/15 01:59:51;;;;;;;47.63;43.17;;;0.00;96.30;;;;;;5031976;28;20300;-70
2022/01/15 02:02:18;;;;;;;46.85;42.15;;;0.00;96.10;;;;;;5032222;28;20566;-71
2022/01/15 02:04:45;;;;;;;45.10;40.72;;;0.00;95.90;;;;;;5032057;28;20725;-71
2022/01/15 02:07:12;;;;;;;45.33;41.15;;;0.00;95.60;;;;;;5032174;28;20201;-71
2022/01/15 02:09:41;;;;;;;45.83;41.53;;;0.00;95.70;;;;;;5031941;28;20218;-71
2022/01/15 02:12:08;;;;;;;47.13;42.28;;;0.00;95.90;;;;;;5032159;28;20205;-70
2022/01/15 02:14:36;;;;;;;45.50;41.50;;;0.00;95.70;;;;;;5032275;28;20199;-71
2022/01/15 02:17:03;;;;;;;46.42;42.20;;;0.00;95.40;;;;;;5032212;28;20197;-71
2022/01/15 02:19:34;;;;;;;45.90;41.88;;;0.10;95.20;;;;;;5032975;28;20223;-70
2022/01/15 02:24:45;;;;;;;44.50;40.22;;;0.10;94.40;;;;;;5035999;28;20589;-71
2022/01/15 02:27:12;;;;;;;44.13;40.17;;;0.00;94.00;;;;;;5035962;28;20197;-71
2022/01/15 02:29:39;;;;;;;43.05;39.17;;;-0.10;94.00;;;;;;5035667;28;20213;-70
2022/01/15 02:32:07;;;;;;;41.85;38.05;;;-0.10;94.00;;;;;;5036047;28;20201;-71
2022/01/15 02:34:35;;;;;;;41.17;37.47;;;-0.30;93.70;;;;;;5035752;28;20197;-71
2022/01/15 02:37:02;;;;;;;41.60;37.90;;;-0.30;93.80;;;;;;5035609;28;20574;-71
2022/01/15 02:39:29;;;;;;;42.17;38.33;;;-0.30;93.70;;;;;;5035398;28;20721;-71
2022/01/15 02:41:56;;;;;;;77.57;43.90;;;-0.30;93.90;;;;;;5035591;28;20198;-71
2022/01/15 02:44:23;;;;;;;42.58;38.53;;;-0.30;95.30;;;;;;5035454;28;20217;-71
2022/01/15 02:49:36;;;;;;;42.05;38.40;;;-0.40;94.90;;;;;;5035293;28;20704;-71
2022/01/15 02:52:03;;;;;;;41.78;38.15;;;-0.40;94.60;;;;;;5035522;28;20197;-71
2022/01/15 02:54:30;;;;;;;44.80;40.75;;;-0.50;94.20;;;;;;5035492;28;20276;-71
2022/01/15 02:56:57;;;;;;;1999.90;392.25;;;-0.60;94.40;;;;;;5035014;28;20263;-71
2022/01/15 02:59:26;;;;;;;1127.95;183.25;;;-0.60;96.70;;;;;;5034912;28;20245;-70
2022/01/15 03:01:52;;;;;;;766.10;127.50;;;-0.50;99.90;;;;;;5035035;28;20201;-70
2022/01/15 03:04:20;;;;;;;1999.90;610.42;;;-0.40;99.90;;;;;;5035039;28;20590;-71
2022/01/15 03:06:49;;;;;;;45.90;41.30;;;-0.40;99.50;;;;;;5035069;28;20211;-71
2022/01/15 03:09:15;;;;;;;1999.90;543.85;;;-0.40;99.90;;;;;;5034895;28;20217;-70
2022/01/15 03:11:42;;;;;;;96.45;48.22;;;-0.30;99.90;;;;;;5035000;28;20198;-71
2022/01/15 03:14:09;;;;;;;1999.90;392.00;;;-0.20;99.90;;;;;;5034946;28;20655;-71
2022/01/15 03:16:36;;;;;;;47.67;43.15;;;-0.20;99.90;;;;;;5034987;28;20280;-70
2022/01/15 03:19:03;;;;;;;48.80;43.85;;;-0.20;99.90;;;;;;5034809;28;20203;-70
2022/01/15 03:21:30;;;;;;;47.90;43.45;;;-0.20;99.90;;;;;;5034854;28;20201;-70
2022/01/15 03:23:58;;;;;;;46.80;42.30;;;-0.20;99.20;;;;;;5034716;28;20229;-71
2022/01/15 03:26:25;;;;;;;48.92;44.28;;;-0.10;98.90;;;;;;5034804;28;20288;-70
2022/01/15 03:28:52;;;;;;;46.33;41.92;;;-0.20;97.70;;;;;;5034619;28;20209;-71
2022/01/15 03:31:19;;;;;;;44.55;39.83;;;-0.20;97.70;;;;;;5034579;28;20202;-71
2022/01/15 03:33:46;;;;;;;45.35;41.15;;;-0.20;96.80;;;;;;5034759;28;20221;-71
2022/01/15 03:36:13;;;;;;;47.55;43.10;;;-0.40;96.60;;;;;;5034506;28;20204;-71
2022/01/15 03:38:40;;;;;;;46.25;41.90;;;-0.30;96.80;;;;;;5034492;28;20193;-71
2022/01/15 03:41:08;;;;;;;48.50;43.92;;;-0.30;96.00;;;;;;5034423;28;20221;-70
2022/01/15 03:43:35;;;;;;;47.22;42.90;;;-0.50;95.80;;;;;;5034415;28;20227;-70
2022/01/15 03:46:02;;;;;;;45.13;40.95;;;-0.60;95.90;;;;;;5034421;28;20586;-71
2022/01/15 03:48:29;;;;;;;45.25;41.05;;;-0.60;95.80;;;;;;5034193;28;20284;-71
2022/01/15 03:50:56;;;;;;;44.67;40.88;;;-0.60;95.90;;;;;;5034006;28;20241;-70
2022/01/15 03:53:23;;;;;;;44.83;40.63;;;-0.50;96.00;;;;;;5034488;28;20223;-71
2022/01/15 03:55:51;;;;;;;44.75;40.55;;;-0.50;95.30;;;;;;5034086;28;20193;-71
2022/01/15 03:58:20;;;;;;;46.72;42.08;;;-0.60;94.80;;;;;;5034227;28;20205;-70
2022/01/15 04:00:47;;;;;;;43.25;39.05;;;-0.70;95.00;;;;;;5033882;28;20307;-70
2022/01/15 04:03:14;;;;;;;42.55;38.85;;;-0.70;95.10;;;;;;5034230;28;20284;-71
2022/01/15 04:05:41;;;;;;;45.97;41.97;;;-0.70;94.90;;;;;;5033967;28;20267;-71
2022/01/15 04:08:09;;;;;;;785.08;125.72;;;-0.60;94.70;;;;;;5033963;28;20280;-71
2022/01/15 04:10:36;;;;;;;1999.90;668.50;;;-0.60;94.30;;;;;;5033662;28;20253;-71
2022/01/15 04:13:03;;;;;;;47.15;42.85;;;-0.60;98.20;;;;;;5034016;28;20205;-71
2022/01/15 04:15:32;;;;;;;44.13;40.13;;;-0.70;98.30;;;;;;5033785;28;20361;-70
2022/01/15 04:17:58;;;;;;;45.25;41.20;;;-0.70;97.40;;;;;;5033818;28;20208;-70
2022/01/15 04:20:25;;;;;;;45.60;41.47;;;-0.70;96.90;;;;;;5033521;28;20220;-71
2022/01/15 04:22:54;;;;;;;44.97;40.97;;;-0.80;96.60;;;;;;5033725;28;20202;-71
2022/01/15 04:25:21;;;;;;;44.70;40.25;;;-0.80;96.40;;;;;;5033606;28;20244;-70
2022/01/15 04:27:48;;;;;;;44.75;40.70;;;-0.70;96.20;;;;;;5033761;28;20197;-71
2022/01/15 04:30:17;;;;;;;44.35;40.22;;;-0.70;96.00;;;;;;5033308;28;20304;-70
2022/01/15 04:32:45;;;;;;;46.47;41.72;;;-0.70;95.90;;;;;;5033427;28;20201;-70
2022/01/15 04:35:13;;;;;;;46.00;41.83;;;-0.60;95.70;;;;;;5033531;28;20235;-70
2022/01/15 04:37:41;;;;;;;44.40;40.17;;;-0.70;95.00;;;;;;5033337;28;20689;-71
2022/01/15 04:40:09;;;;;;;45.63;41.08;;;-0.80;94.80;;;;;;5033170;28;20223;-70
2022/01/15 04:42:37;;;;;;;44.55;40.35;;;-0.80;95.10;;;;;;5032609;28;20547;-70
2022/01/15 04:45:07;;;;;;;44.53;40.53;;;-0.80;95.20;;;;;;5033153;28;20312;-71
2022/01/15 04:47:34;;;;;;;42.75;38.78;;;-0.70;94.80;;;;;;5033271;28;20662;-71
2022/01/15 04:50:03;;;;;;;42.47;38.88;;;-0.70;94.10;;;;;;5032972;28;20221;-70
2022/01/15 04:52:33;;;;;;;424.10;86.82;;;-0.70;94.10;;;;;;5033266;28;20204;-70
2022/01/15 04:55:00;;;;;;;45.00;40.90;;;-0.70;93.80;;;;;;5033071;28;20288;-70
2022/01/15 04:57:27;;;;;;;42.10;38.40;;;-0.80;94.70;;;;;;5033198;28;20208;-70
2022/01/15 04:59:54;;;;;;;43.03;38.95;;;-0.80;94.90;;;;;;5032842;28;20218;-71
2022/01/15 05:02:21;;;;;;;45.50;41.70;;;-0.90;94.70;;;;;;5032915;28;20201;-71
2022/01/15 05:04:48;;;;;;;43.83;40.03;;;-0.80;94.50;;;;;;5032890;28;20220;-70
2022/01/15 05:07:16;;;;;;;45.13;41.13;;;-0.80;94.10;;;;;;5033071;28;20208;-70
2022/01/15 05:09:43;;;;;;;46.70;42.13;;;-0.80;93.90;;;;;;5032579;28;20260;-70
2022/01/15 05:12:22;;;;;;;43.55;39.55;;;-0.90;93.90;;;;;;5032942;28;20205;-70
2022/01/15 05:14:49;;;;;;;844.47;145.32;;;-0.90;94.40;;;;;;5032831;28;20193;-70
2022/01/15 05:17:16;;;;;;;131.40;47.47;;;-0.90;94.50;;;;;;5032772;28;20292;-70
2022/01/15 05:19:43;;;;;;;45.08;40.92;;;-1.00;95.50;;;;;;5032531;28;20220;-70
2022/01/15 05:22:09;;;;;;;44.33;40.38;;;-0.90;99.90;;;;;;5032809;28;20197;-70
2022/01/15 05:24:38;;;;;;;44.53;40.25;;;-0.80;99.20;;;;;;5032428;28;20252;-70
2022/01/15 05:27:05;;;;;;;42.40;38.55;;;-0.80;97.80;;;;;;5032702;28;20276;-70
2022/01/15 05:29:32;;;;;;;41.75;38.00;;;-0.90;96.70;;;;;;5032450;28;20706;-70
2022/01/15 05:31:58;;;;;;;44.95;40.83;;;-0.90;96.10;;;;;;5032694;28;20566;-70
2022/01/15 05:34:25;;;;;;;44.33;40.33;;;-0.80;96.00;;;;;;5032653;28;20219;-70
2022/01/15 05:36:52;;;;;;;42.92;39.17;;;-0.80;95.20;;;;;;5032524;28;20247;-70
2022/01/15 05:39:19;;;;;;;42.17;38.78;;;-0.80;94.80;;;;;;5032263;28;20300;-70
2022/01/15 05:41:47;;;;;;;43.05;39.15;;;-0.80;94.30;;;;;;5032483;28;20203;-70
2022/01/15 05:44:14;;;;;;;43.13;39.10;;;-0.90;93.80;;;;;;5032401;28;20221;-70
2022/01/15 05:46:41;;;;;;;44.28;40.65;;;-1.00;94.20;;;;;;5032393;28;20204;-70
2022/01/15 05:49:08;;;;;;;45.30;41.22;;;-1.00;94.30;;;;;;5032252;28;20199;-70
2022/01/15 05:51:35;;;;;;;42.50;38.83;;;-1.10;94.40;;;;;;5032492;28;20194;-70
2022/01/15 05:54:04;;;;;;;45.63;41.42;;;-1.10;94.50;;;;;;5032533;28;20197;-71
2022/01/15 05:56:31;;;;;;;43.72;40.13;;;-1.10;94.40;;;;;;5036158;28;20205;-70
2022/01/15 05:58:59;;;;;;;41.92;38.42;;;-1.10;94.40;;;;;;5036373;28;20536;-70
2022/01/15 06:01:26;;;;;;;42.95;39.25;;;-1.10;94.50;;;;;;5036004;28;20193;-70
2022/01/15 06:03:53;;;;;;;45.70;41.80;;;-1.00;94.50;;;;;;5036304;28;20207;-71
2022/01/15 06:06:20;;;;;;;45.03;40.90;;;-1.00;94.40;;;;;;5036188;28;20251;-70
2022/01/15 06:08:47;;;;;;;43.80;40.20;;;-0.90;94.30;;;;;;5036079;28;20658;-71
2022/01/15 06:11:17;;;;;;;64.72;41.50;;;-1.00;93.70;;;;;;5035977;28;20228;-71
2022/01/15 06:13:44;;;;;;;44.08;40.00;;;-1.00;93.90;;;;;;5036080;28;20565;-71
2022/01/15 06:16:12;;;;;;;42.63;38.65;;;-0.90;93.90;;;;;;5036053;28;20668;-71
2022/01/15 06:18:39;;;;;;;42.92;39.08;;;-1.00;93.80;;;;;;5036141;28;20198;-71
2022/01/15 06:21:06;;;;;;;40.30;36.92;;;-0.90;93.70;;;;;;5035752;28;20221;-71
2022/01/15 06:23:34;;;;;;;44.00;40.20;;;-1.00;93.40;;;;;;5035944;28;20624;-71
2022/01/15 06:26:00;;;;;;;40.45;37.15;;;-1.00;93.50;;;;;;5035833;28;20225;-71
2022/01/15 06:28:27;;;;;;;43.70;39.92;;;-1.00;93.40;;;;;;5035835;28;20193;-70
2022/01/15 06:30:54;;;;;;;42.42;38.63;;;-1.00;93.40;;;;;;5035603;28;20221;-70
2022/01/15 06:33:23;;;;;;;41.88;38.13;;;-0.90;93.00;;;;;;5035720;28;20276;-70
2022/01/15 06:35:49;;;;;;;41.92;38.42;;;-0.90;92.70;;;;;;5035644;28;20189;-70
2022/01/15 06:38:16;;;;;;;43.22;39.53;;;-0.90;92.50;;;;;;5035694;28;20204;-70
2022/01/15 06:40:43;;;;;;;41.80;38.10;;;-0.90;92.40;;;;;;5035420;28;20221;-70
2022/01/15 06:43:10;;;;;;;41.90;38.40;;;-1.00;92.30;;;;;;5035411;28;20292;-70
2022/01/15 06:45:37;;;;;;;44.60;40.42;;;-1.10;92.50;;;;;;5035628;28;20217;-71
2022/01/15 06:48:05;;;;;;;44.17;40.08;;;-1.10;92.90;;;;;;5035416;28;20208;-70
2022/01/15 06:50:33;;;;;;;44.67;40.25;;;-1.10;93.20;;;;;;5035137;28;20239;-70
2022/01/15 06:53:00;;;;;;;41.58;37.88;;;-1.10;93.20;;;;;;5035514;28;20292;-70
2022/01/15 06:55:27;;;;;;;43.35;39.65;;;-1.10;93.00;;;;;;5035263;28;20750;-71
2022/01/15 06:57:54;;;;;;;42.75;39.05;;;-1.10;92.70;;;;;;5035306;28;20666;-70
2022/01/15 07:00:21;;;;;;;44.80;41.05;;;-1.20;92.90;;;;;;5034785;28;20308;-71
2022/01/15 07:02:48;;;;;;;44.78;40.92;;;-1.10;93.00;;;;;;5035158;28;20559;-70
2022/01/15 07:05:14;;;;;;;41.92;38.42;;;-1.10;92.60;;;;;;5034717;28;20307;-70
2022/01/15 07:07:46;;;;;;;43.47;39.97;;;-1.20;92.50;;;;;;5035117;28;20289;-70
2022/01/15 07:10:14;;;;;;;47.33;42.92;;;-1.20;92.70;;;;;;5034924;28;20582;-70
2022/01/15 07:12:41;;;;;;;42.72;38.88;;;-1.20;92.80;;;;;;5035142;28;20197;-70
2022/01/15 07:15:08;;;;;;;42.05;38.65;;;-1.20;92.90;;;;;;5035010;28;20558;-70
2022/01/15 07:17:42;;;;;;;43.47;39.47;;;-1.20;92.90;;;;;;5035107;28;20197;-70
2022/01/15 07:20:09;;;;;;;44.40;40.45;;;-1.20;93.20;;;;;;5034866;28;20705;-70
2022/01/15 07:22:36;;;;;;;45.05;41.03;;;-1.20;93.10;;;;;;5035082;28;20539;-70
2022/01/15 07:25:06;;;;;;;42.78;38.88;;;-1.10;93.20;;;;;;5034857;28;20225;-70
2022/01/15 07:27:33;;;;;;;44.28;40.50;;;-1.10;92.80;;;;;;5034701;28;20682;-70
2022/01/15 07:30:01;;;;;;;43.13;39.45;;;-1.20;92.90;;;;;;5034484;28;20221;-71
2022/01/15 07:32:28;;;;;;;42.60;39.20;;;-1.20;92.70;;;;;;5034753;28;20298;-71
2022/01/15 07:34:55;;;;;;;44.97;41.08;;;-1.20;92.80;;;;;;5034600;28;20550;-70
2022/01/15 07:37:21;;;;;;;43.75;40.17;;;-1.10;92.50;;;;;;5034469;28;20197;-70
2022/01/15 07:39:48;;;;;;;45.25;41.08;;;-1.20;92.50;;;;;;5034204;28;20362;-70
2022/01/15 07:42:17;;;;;;;45.50;41.50;;;-1.20;92.70;;;;;;5034344;28;20587;-70
2022/01/15 07:44:44;;;;;;;42.78;38.67;;;-1.20;92.30;;;;;;5034369;28;20205;-71
2022/01/15 07:47:12;;;;;;;45.70;41.90;;;-1.20;92.60;;;;;;5034465;28;20220;-70
2022/01/15 07:49:38;;;;;;;41.50;37.92;;;-1.20;92.70;;;;;;5034095;28;20786;-70
2022/01/15 07:52:06;;;;;;;42.10;38.60;;;-1.20;92.90;;;;;;5034391;28;20204;-71
2022/01/15 07:54:32;;;;;;;42.78;39.00;;;-1.00;92.60;;;;;;5034286;28;20197;-70
2022/01/15 07:56:59;;;;;;;42.78;39.28;;;-0.90;91.90;;;;;;5033933;28;20682;-71
2022/01/15 07:59:28;;;;;;;42.63;38.72;;;-0.90;92.10;;;;;;5034007;28;20217;-70
2022/01/15 08:01:55;;;;;;;43.60;39.88;;;-0.80;91.90;;;;;;5033915;28;20198;-71
2022/01/15 08:04:22;;;;;;;43.50;39.60;;;-0.80;91.40;;;;;;5034066;28;20203;-70
2022/01/15 08:06:49;;;;;;;44.28;40.42;;;-0.90;91.60;;;;;;5033982;28;20221;-70
2022/01/15 08:09:16;;;;;;;42.95;39.35;;;-0.80;91.60;;;;;;5033743;28;20217;-70
2022/01/15 08:11:42;;;;;;;43.78;39.88;;;-0.70;91.50;;;;;;5033989;28;20201;-71
2022/01/15 08:14:09;;;;;;;44.00;40.17;;;-0.60;91.00;;;;;;5033778;28;20224;-71
2022/01/15 08:16:38;;;;;;;43.97;39.90;;;-0.40;90.50;;;;;;5033427;28;20194;-71
2022/01/15 08:19:04;;;;;;;44.38;40.65;;;-0.30;89.80;;;;;;5033340;28;20202;-71
2022/01/15 08:21:31;;;;;;;43.03;39.40;;;-0.40;89.70;;;;;;5033576;28;20288;-70
2022/01/15 08:23:58;;;;;;;43.45;39.75;;;-0.50;89.90;;;;;;5033472;28;20289;-71
2022/01/15 08:26:25;;;;;;;42.65;38.67;;;-0.50;90.50;;;;;;5033528;28;20243;-71
2022/01/15 08:28:52;;;;;;;42.50;38.95;;;-0.50;90.60;;;;;;5033591;28;20240;-71
2022/01/15 08:31:20;;;;;;;43.22;39.50;;;-0.40;90.70;;;;;;5033696;28;20201;-71
2022/01/15 08:33:48;;;;;;;44.30;40.47;;;-0.40;90.70;;;;;;5033488;28;20559;-71
2022/01/15 08:36:16;;;;;;;43.33;39.47;;;-0.40;90.90;;;;;;5033434;28;20284;-71
2022/01/15 08:38:43;;;;;;;41.38;37.65;;;-0.30;91.00;;;;;;5033414;28;20320;-71
2022/01/15 08:41:12;;;;;;;44.05;40.13;;;-0.10;91.00;;;;;;5033228;28;20223;-71
2022/01/15 08:43:39;;;;;;;1071.22;161.23;;;-0.10;91.00;;;;;;5033196;28;20232;-71
2022/01/15 08:46:06;;;;;;;47.88;43.88;;;0.10;91.60;;;;;;5033142;28;20338;-71
2022/01/15 08:48:33;;;;;;;45.47;41.53;;;0.20;92.60;;;;;;5033203;28;20208;-71
2022/01/15 08:51:02;;;;;;;42.67;38.97;;;0.30;92.00;;;;;;5032824;28;20667;-71
2022/01/15 08:53:28;;;;;;;44.38;40.63;;;0.40;91.40;;;;;;5033174;28;20288;-71
2022/01/15 08:55:56;;;;;;;44.25;40.35;;;0.50;91.40;;;;;;5032872;28;20666;-71
2022/01/15 08:58:25;;;;;;;42.70;38.97;;;0.60;91.10;;;;;;5033045;28;20225;-71
2022/01/15 09:00:54;;;;;;;45.28;41.67;;;0.70;90.90;;;;;;5032572;28;20217;-71
2022/01/15 09:03:21;;;;;;;44.08;40.42;;;0.80;90.70;;;;;;5033041;28;20201;-71
2022/01/15 09:05:50;;;;;;;42.13;38.42;;;0.90;90.50;;;;;;5032878;28;20578;-71
2022/01/15 09:08:20;;;;;;;42.47;38.85;;;1.00;90.30;;;;;;5032934;28;20247;-71
2022/01/15 09:10:47;;;;;;;44.17;40.38;;;1.10;90.10;;;;;;5032786;28;20217;-71
2022/01/15 09:13:14;;;;;;;351.30;64.70;;;1.10;91.30;;;;;;5032859;28;20228;-71
2022/01/15 09:15:41;;;;;;;75.25;42.88;;;1.20;90.60;;;;;;5032849;28;20193;-71
2022/01/15 09:18:08;;;;;;;43.78;39.88;;;1.30;90.50;;;;;;5032771;28;20299;-71
2022/01/15 09:20:35;;;;;;;42.58;38.85;;;1.30;90.40;;;;;;5032464;28;20308;-71
2022/01/15 09:23:02;;;;;;;40.13;36.80;;;1.40;90.20;;;;;;5032796;28;20224;-71
2022/01/15 09:25:30;;;;;;;46.15;41.75;;;1.50;89.90;;;;;;5032557;28;20217;-71
2022/01/15 09:30:41;;;;;;;43.53;39.83;;;1.60;90.00;;;;;;5032442;28;20211;-71
2022/01/15 09:33:08;;;;;;;45.83;41.92;;;1.70;89.60;;;;;;5032685;28;20208;-71
2022/01/15 09:35:37;;;;;;;41.92;38.28;;;1.80;89.20;;;;;;5032627;28;20193;-71
2022/01/15 09:38:04;;;;;;;41.70;37.90;;;1.90;89.50;;;;;;5032482;28;20197;-71
2022/01/15 09:40:33;;;;;;;43.50;39.60;;;1.90;89.10;;;;;;5032237;28;20217;-71
2022/01/15 09:43:00;;;;;;;42.90;39.00;;;2.00;88.70;;;;;;5032326;28;20205;-71
2022/01/15 09:45:27;;;;;;;43.20;39.70;;;2.00;88.20;;;;;;5032293;28;20288;-71
2022/01/15 09:47:58;;;;;;;42.38;38.90;;;2.10;87.90;;;;;;5032379;28;20197;-71
2022/01/15 09:50:27;;;;;;;109.93;45.80;;;2.10;87.70;;;;;;5032140;28;20578;-71
2022/01/15 09:52:55;;;;;;;43.00;39.22;;;2.10;87.40;;;;;;5032373;28;20207;-71
2022/01/15 09:55:23;;;;;;;43.90;40.22;;;2.10;89.00;;;;;;5032185;28;20570;-71
2022/01/15 09:57:52;;;;;;;44.80;40.97;;;2.10;88.90;;;;;;5032336;28;20275;-71
2022/01/15 10:00:21;;;;;;;41.63;38.00;;;2.20;87.90;;;;;;5032041;28;20217;-71
2022/01/15 10:02:50;;;;;;;43.22;39.28;;;2.30;87.80;;;;;;5032102;28;20237;-71
2022/01/15 10:05:18;;;;;;;43.40;39.67;;;2.40;87.30;;;;;;5032216;28;20201;-71
2022/01/15 10:07:56;;;;;;;45.05;41.17;;;2.40;86.30;;;;;;5032228;28;20194;-71
2022/01/15 10:10:23;;;;;;;43.80;40.15;;;2.40;85.80;;;;;;5031958;28;20745;-71
2022/01/15 10:12:52;;;;;;;44.47;40.58;;;2.50;85.30;;;;;;5032207;28;20283;-71
2022/01/15 10:15:19;;;;;;;43.67;39.88;;;2.50;84.40;;;;;;5032173;28;20194;-71
2022/01/15 10:17:46;;;;;;;44.30;40.60;;;2.50;84.90;;;;;;5032107;28;20198;-71
2022/01/15 10:20:15;;;;;;;43.92;40.15;;;2.50;84.90;;;;;;5031898;28;20218;-71
2022/01/15 10:22:44;;;;;;;44.38;40.58;;;2.40;85.60;;;;;;5032055;28;20205;-71
2022/01/15 10:25:16;;;;;;;45.45;41.65;;;2.40;86.40;;;;;;5032041;28;20276;-71
2022/01/15 10:27:44;;;;;;;45.53;41.35;;;2.40;86.10;;;;;;5032034;28;20271;-71
2022/01/15 10:30:14;;;;;;;45.42;41.20;;;2.60;85.90;;;;;;5031789;28;20245;-71
2022/01/15 10:32:53;;;;;;;44.70;40.60;;;2.70;85.00;;;;;;5032075;28;20201;-71
2022/01/15 10:35:20;;;;;;;46.88;42.67;;;2.60;84.80;;;;;;5032048;28;20212;-71
2022/01/15 10:37:50;;;;;;;45.58;41.75;;;2.60;85.20;;;;;;5031798;28;20280;-71
2022/01/15 10:40:17;;;;;;;43.70;39.90;;;2.70;84.60;;;;;;5032311;28;20224;-71
2022/01/15 10:42:51;;;;;;;46.22;41.60;;;2.80;84.80;;;;;;5035474;28;20667;-71
2022/01/15 10:45:19;;;;;;;116.25;48.75;;;2.80;85.50;;;;;;5035558;28;20566;-71
2022/01/15 10:47:49;;;;;;;48.88;43.92;;;2.90;85.80;;;;;;5035315;28;20598;-71
2022/01/15 10:50:21;;;;;;;45.50;41.75;;;3.00;86.20;;;;;;5035213;28;20283;-71
2022/01/15 10:52:48;;;;;;;45.72;41.92;;;3.10;85.20;;;;;;5035524;28;20227;-70
2022/01/15 10:55:17;;;;;;;45.60;41.70;;;3.10;84.20;;;;;;5035156;28;20677;-71
2022/01/15 10:57:45;;;;;;;50.08;45.65;;;3.10;83.70;;;;;;5035310;28;20675;-71
2022/01/15 11:00:20;;;;;;;47.75;43.00;;;3.10;84.20;;;;;;5035001;28;20243;-71
2022/01/15 11:02:48;;;;;;;46.70;42.78;;;3.10;86.10;;;;;;5035349;28;20201;-71
2022/01/15 11:05:28;;;;;;;46.15;42.22;;;3.10;84.10;;;;;;5035176;28;20200;-71
2022/01/15 11:08:07;;;;;;;45.20;40.97;;;3.10;82.90;;;;;;5035105;28;20260;-71
2022/01/15 11:10:39;;;;;;;46.72;42.58;;;3.20;82.50;;;;;;5034831;28;20223;-71
2022/01/15 11:13:10;;;;;;;44.58;40.90;;;3.20;82.00;;;;;;5035105;28;20582;-71
2022/01/15 11:15:39;;;;;;;46.70;42.40;;;3.30;81.50;;;;;;5035103;28;20198;-71
2022/01/15 11:18:06;;;;;;;46.83;42.72;;;3.30;81.60;;;;;;5034984;28;20203;-71
2022/01/15 11:20:34;;;;;;;47.55;42.83;;;3.30;81.50;;;;;;5034719;28;20217;-71
2022/01/15 11:23:02;;;;;;;44.55;40.80;;;3.40;80.70;;;;;;5034809;28;20563;-71
2022/01/15 11:25:29;;;;;;;63.33;57.45;;;3.40;80.80;;;;;;5034822;28;20201;-71
2022/01/15 11:27:57;;;;;;;49.15;44.72;;;3.30;81.90;;;;;;5034836;28;20219;-71
2022/01/15 11:30:25;;;;;;;45.83;41.75;;;3.50;81.80;;;;;;5034522;28;20225;-71
2022/01/15 11:32:54;;;;;;;46.08;42.05;;;3.50;82.00;;;;;;5034920;28;20677;-71
2022/01/15 11:35:21;;;;;;;47.58;43.45;;;3.50;82.00;;;;;;5034786;28;20205;-71
2022/01/15 11:37:52;;;;;;;46.85;42.80;;;3.70;85.40;;;;;;5034548;28;20906;-71
2022/01/15 11:40:40;;;;;;;45.70;41.63;;;3.70;83.50;;;;;;5034394;28;20248;-71
2022/01/15 11:43:42;;;;;;;46.70;42.60;;;3.70;81.70;;;;;;5034493;28;20213;-71
2022/01/15 11:46:26;;;;;;;47.97;43.70;;;3.70;81.40;;;;;;5034382;28;20227;-71
2022/01/15 11:49:31;;;;;;;45.67;41.63;;;3.80;80.50;;;;;;5034475;28;20193;-71
2022/01/15 11:52:21;;;;;;;45.13;41.33;;;4.00;80.30;;;;;;5034386;28;20193;-71
2022/01/15 11:55:11;;;;;;;45.67;41.33;;;4.10;79.60;;;;;;5034239;28;20219;-71
2022/01/15 11:57:49;;;;;;;46.95;42.85;;;4.10;80.00;;;;;;5034097;28;20194;-71
2022/01/15 12:00:22;;;;;;;47.28;43.33;;;4.10;81.70;;;;;;5033903;28;20714;-71
2022/01/15 12:03:16;;;;;;;47.80;43.70;;;4.10;80.20;;;;;;5034146;28;20197;-71
2022/01/15 12:05:48;;;;;;;45.10;41.40;;;4.20;80.80;;;;;;4998771;28;20614;-71
2022/01/15 12:08:30;;;;;;;45.20;41.15;;;4.10;79.70;;;;;;5033974;28;20221;-72
2022/01/15 12:10:58;;;;;;;43.72;40.15;;;4.20;79.80;;;;;;5033731;28;20229;-71
2022/01/15 12:13:26;;;;;;;46.60;43.00;;;4.30;79.70;;;;;;5033874;28;20291;-71
2022/01/15 12:16:41;;;;;;;45.92;42.13;;;4.40;79.40;;;;;;5034029;28;20199;-71
2022/01/15 12:19:08;;;;;;;44.78;41.17;;;4.50;79.00;;;;;;5025957;28;20194;-71
2022/01/15 12:22:00;;;;;;;42.03;38.20;;;4.50;78.90;;;;;;5033852;28;20215;-72
2022/01/15 12:24:53;;;;;;;47.20;42.85;;;4.60;78.10;;;;;;5033740;28;20224;-71
2022/01/15 12:27:26;;;;;;;46.50;42.75;;;4.60;78.20;;;;;;5033803;28;20634;-71
2022/01/15 12:30:15;;;;;;;43.40;39.78;;;4.70;77.70;;;;;;5033346;28;20235;-71
2022/01/15 12:32:43;;;;;;;46.50;42.40;;;4.80;77.30;;;;;;5029291;28;20205;-71
2022/01/15 12:35:16;;;;;;;45.20;41.35;;;4.70;77.40;;;;;;5033561;28;20292;-71
2022/01/15 12:37:55;;;;;;;46.42;42.60;;;4.60;77.90;;;;;;5033527;28;20626;-71
2022/01/15 12:40:23;;;;;;;45.88;42.13;;;4.70;77.50;;;;;;5033143;28;20225;-71
2022/01/15 12:42:56;;;;;;;44.67;40.63;;;4.70;77.60;;;;;;5033358;28;20578;-71
2022/01/15 12:45:23;;;;;;;45.35;41.45;;;4.60;77.60;;;;;;5033465;28;20208;-71
2022/01/15 12:47:50;;;;;;;47.08;43.13;;;4.60;77.40;;;;;;5033300;28;20224;-71
2022/01/15 12:50:18;;;;;;;43.70;40.00;;;4.80;77.30;;;;;;5033193;28;20274;-71
2022/01/15 12:52:46;;;;;;;45.10;41.22;;;4.80;77.20;;;;;;5033226;28;20207;-72
2022/01/15 12:55:14;;;;;;;43.05;39.35;;;4.80;77.20;;;;;;5033008;28;20284;-72
2022/01/15 12:57:44;;;;;;;46.33;42.33;;;4.80;77.30;;;;;;5032936;28;20203;-72
2022/01/15 13:00:13;;;;;;;42.45;38.95;;;4.90;77.10;;;;;;5033112;28;20213;-72